Time,TemperatureF,DewpointF,PressureIn,WindDirection,WindDirectionDegrees,WindSpeedMPH,WindSpeedGustMPH,Humidity,HourlyPrecipIn,Conditions,Clouds,dailyrainin,SoftwareType,DateUTC
2013-12-01 00:00:00,30.3,27.5,30.11,North,0,0.0,0.0,89,0.00,,,0.00,VWS V14.00,2013-12-01 06:00:00,
2013-12-01 00:05:00,30.2,27.6,30.11,North,0,0.0,0.0,90,0.00,,,0.00,VWS V14.00,2013-12-01 06:05:00,
2013-12-01 00:10:00,30.0,27.4,30.11,North,0,0.0,0.0,90,0.00,,,0.00,VWS V14.00,2013-12-01 06:10:00,
2013-12-01 00:15:00,29.9,27.3,30.10,North,0,0.0,0.0,90,0.00,,,0.00,VWS V14.00,2013-12-01 06:15:00,
2013-12-01 00:20:00,29.9,27.3,30.10,North,0,0.0,0.0,90,0.00,,,0.00,VWS V14.00,2013-12-01 06:20:00,
2013-12-01 00:25:00,29.9,27.3,30.11,North,0,0.0,0.0,90,0.00,,,0.00,VWS V14.00,2013-12-01 06:25:00,
2013-12-01 00:30:00,29.8,27.2,30.11,North,0,0.0,0.0,90,0.00,,,0.00,VWS V14.00,2013-12-01 06:30:00,
2013-12-01 00:35:00,29.7,27.1,30.11,North,0,0.0,0.0,90,0.00,,,0.00,VWS V14.00,2013-12-01 06:35:00,
2013-12-01 00:40:00,29.6,27.0,30.10,North,0,0.0,0.0,90,0.00,,,0.00,VWS V14.00,2013-12-01 06:40:00,
2013-12-01 00:45:00,29.4,26.8,30.10,North,0,0.0,0.0,90,0.00,,,0.00,VWS V14.00,2013-12-01 06:45:00,
2013-12-01 00:50:00,29.8,27.5,30.10,North,0,0.0,0.0,91,0.00,,,0.00,VWS V14.00,2013-12-01 06:50:00,
2013-12-01 00:55:00,30.0,28.0,30.10,North,0,0.0,0.0,92,0.00,,,0.00,VWS V14.00,2013-12-01 06:55:00,
2013-12-01 01:00:00,29.8,27.5,30.10,North,0,0.0,0.0,91,0.00,,,0.00,VWS V14.00,2013-12-01 07:00:00,
2013-12-01 01:05:00,29.6,27.3,30.10,North,0,0.0,0.0,91,0.00,,,0.00,VWS V14.00,2013-12-01 07:05:00,
2013-12-01 01:10:00,29.3,26.7,30.10,North,0,0.0,0.0,90,0.00,,,0.00,VWS V14.00,2013-12-01 07:10:00,
2013-12-01 01:15:00,29.0,26.4,30.10,North,0,0.0,0.0,90,0.00,,,0.00,VWS V14.00,2013-12-01 07:15:00,
2013-12-01 01:20:00,28.8,26.2,30.10,North,0,0.0,0.0,90,0.00,,,0.00,VWS V14.00,2013-12-01 07:20:00,
2013-12-01 01:25:00,28.6,26.0,30.10,North,0,0.0,0.0,90,0.00,,,0.00,VWS V14.00,2013-12-01 07:25:00,
2013-12-01 01:30:00,28.5,26.0,30.10,North,0,0.0,0.0,90,0.00,,,0.00,VWS V14.00,2013-12-01 07:30:00,
2013-12-01 01:35:00,28.6,26.3,30.09,North,0,0.0,0.0,91,0.00,,,0.00,VWS V14.00,2013-12-01 07:35:00,
2013-12-01 01:40:00,28.9,26.6,30.10,North,0,0.0,0.0,91,0.00,,,0.00,VWS V14.00,2013-12-01 07:40:00,
2013-12-01 01:45:00,29.0,27.0,30.10,North,0,0.0,0.0,92,0.00,,,0.00,VWS V14.00,2013-12-01 07:45:00,
2013-12-01 01:50:00,29.2,27.2,30.10,North,0,0.0,0.0,92,0.00,,,0.00,VWS V14.00,2013-12-01 07:50:00,
2013-12-01 01:55:00,29.3,27.3,30.10,North,0,0.0,0.0,92,0.00,,,0.00,VWS V14.00,2013-12-01 07:55:00,
2013-12-01 02:00:00,29.2,27.2,30.09,North,0,0.0,0.0,92,0.00,,,0.00,VWS V14.00,2013-12-01 08:00:00,
2013-12-01 02:05:00,28.9,26.6,30.09,North,0,0.0,0.0,91,0.00,,,0.00,VWS V14.00,2013-12-01 08:05:00,
2013-12-01 02:10:00,29.0,27.0,30.09,North,0,0.0,0.0,92,0.00,,,0.00,VWS V14.00,2013-12-01 08:10:00,
2013-12-01 02:15:00,28.8,26.5,30.09,North,0,0.0,0.0,91,0.00,,,0.00,VWS V14.00,2013-12-01 08:15:00,
2013-12-01 02:20:00,28.6,26.3,30.09,North,0,0.0,0.0,91,0.00,,,0.00,VWS V14.00,2013-12-01 08:20:00,
2013-12-01 02:25:00,28.3,25.8,30.09,North,0,0.0,0.0,90,0.00,,,0.00,VWS V14.00,2013-12-01 08:25:00,
2013-12-01 02:30:00,28.1,25.5,30.09,North,0,0.0,0.0,90,0.00,,,0.00,VWS V14.00,2013-12-01 08:30:00,
2013-12-01 02:35:00,27.9,25.4,30.09,North,0,0.0,0.0,90,0.00,,,0.00,VWS V14.00,2013-12-01 08:35:00,
2013-12-01 02:40:00,27.7,25.4,30.09,North,0,0.0,0.0,91,0.00,,,0.00,VWS V14.00,2013-12-01 08:40:00,
2013-12-01 02:45:00,27.5,25.0,30.10,North,0,0.0,0.0,90,0.00,,,0.00,VWS V14.00,2013-12-01 08:45:00,
2013-12-01 02:50:00,27.5,25.2,30.10,North,0,0.0,0.0,91,0.00,,,0.00,VWS V14.00,2013-12-01 08:50:00,
2013-12-01 02:55:00,27.5,25.2,30.09,North,0,0.0,0.0,91,0.00,,,0.00,VWS V14.00,2013-12-01 08:55:00,
2013-12-01 03:00:00,27.5,25.2,30.09,North,0,0.0,0.0,91,0.00,,,0.00,VWS V14.00,2013-12-01 09:00:00,
2013-12-01 03:05:00,27.5,25.2,30.09,North,0,0.0,0.0,91,0.00,,,0.00,VWS V14.00,2013-12-01 09:05:00,
2013-12-01 03:10:00,27.4,25.1,30.09,North,0,0.0,0.0,91,0.00,,,0.00,VWS V14.00,2013-12-01 09:10:00,
2013-12-01 03:15:00,27.2,24.9,30.09,North,0,0.0,0.0,91,0.00,,,0.00,VWS V14.00,2013-12-01 09:15:00,
2013-12-01 03:20:00,27.2,24.9,30.09,North,0,0.0,0.0,91,0.00,,,0.00,VWS V14.00,2013-12-01 09:20:00,
2013-12-01 03:25:00,27.1,24.8,30.09,North,0,0.0,0.0,91,0.00,,,0.00,VWS V14.00,2013-12-01 09:25:00,
2013-12-01 03:30:00,27.1,24.8,30.09,North,0,0.0,0.0,91,0.00,,,0.00,VWS V14.00,2013-12-01 09:30:00,
2013-12-01 03:35:00,27.1,24.8,30.09,North,0,0.0,0.0,91,0.00,,,0.00,VWS V14.00,2013-12-01 09:35:00,
2013-12-01 03:40:00,27.2,25.2,30.09,North,0,0.0,0.0,92,0.00,,,0.00,VWS V14.00,2013-12-01 09:40:00,
2013-12-01 03:45:00,27.2,25.2,30.09,North,0,0.0,0.0,92,0.00,,,0.00,VWS V14.00,2013-12-01 09:45:00,
2013-12-01 03:50:00,27.2,25.2,30.09,North,0,0.0,0.0,92,0.00,,,0.00,VWS V14.00,2013-12-01 09:50:00,
2013-12-01 03:55:00,27.3,25.3,30.10,North,0,0.0,0.0,92,0.00,,,0.00,VWS V14.00,2013-12-01 09:55:00,
2013-12-01 04:00:00,27.4,25.4,30.10,North,0,0.0,0.0,92,0.00,,,0.00,VWS V14.00,2013-12-01 10:00:00,
2013-12-01 04:05:00,27.3,25.3,30.10,North,0,0.0,0.0,92,0.00,,,0.00,VWS V14.00,2013-12-01 10:05:00,
2013-12-01 04:10:00,27.2,24.9,30.10,North,0,0.0,0.0,91,0.00,,,0.00,VWS V14.00,2013-12-01 10:10:00,
2013-12-01 04:15:00,27.0,24.7,30.09,North,0,0.0,0.0,91,0.00,,,0.00,VWS V14.00,2013-12-01 10:15:00,
2013-12-01 04:20:00,26.9,24.6,30.09,North,0,0.0,0.0,91,0.00,,,0.00,VWS V14.00,2013-12-01 10:20:00,
2013-12-01 04:25:00,26.8,24.5,30.09,North,0,0.0,0.0,91,0.00,,,0.00,VWS V14.00,2013-12-01 10:25:00,
2013-12-01 04:30:00,26.6,24.3,30.09,North,0,0.0,0.0,91,0.00,,,0.00,VWS V14.00,2013-12-01 10:30:00,
2013-12-01 04:35:00,26.5,24.2,30.09,North,0,0.0,0.0,91,0.00,,,0.00,VWS V14.00,2013-12-01 10:35:00,
2013-12-01 04:40:00,26.5,24.2,30.09,North,0,0.0,0.0,91,0.00,,,0.00,VWS V14.00,2013-12-01 10:40:00,
2013-12-01 04:45:00,26.3,24.0,30.09,North,0,0.0,0.0,91,0.00,,,0.00,VWS V14.00,2013-12-01 10:45:00,
2013-12-01 04:50:00,26.2,23.9,30.09,North,0,0.0,0.0,91,0.00,,,0.00,VWS V14.00,2013-12-01 10:50:00,
2013-12-01 04:55:00,26.1,23.8,30.09,North,0,0.0,0.0,91,0.00,,,0.00,VWS V14.00,2013-12-01 10:55:00,
2013-12-01 05:00:00,26.1,23.8,30.09,North,0,0.0,0.0,91,0.00,,,0.00,VWS V14.00,2013-12-01 11:00:00,
2013-12-01 05:05:00,26.1,23.8,30.09,North,0,0.0,0.0,91,0.00,,,0.00,VWS V14.00,2013-12-01 11:05:00,
2013-12-01 05:10:00,25.9,23.6,30.09,North,0,0.0,0.0,91,0.00,,,0.00,VWS V14.00,2013-12-01 11:10:00,
2013-12-01 05:15:00,25.8,23.5,30.09,North,0,0.0,0.0,91,0.00,,,0.00,VWS V14.00,2013-12-01 11:15:00,
2013-12-01 05:20:00,25.8,23.5,30.09,North,0,0.0,0.0,91,0.00,,,0.00,VWS V14.00,2013-12-01 11:20:00,
2013-12-01 05:25:00,25.7,23.4,30.09,North,0,0.0,0.0,91,0.00,,,0.00,VWS V14.00,2013-12-01 11:25:00,
2013-12-01 05:30:00,25.6,23.3,30.09,North,0,0.0,0.0,91,0.00,,,0.00,VWS V14.00,2013-12-01 11:30:00,
2013-12-01 05:35:00,25.4,23.1,30.09,North,0,0.0,0.0,91,0.00,,,0.00,VWS V14.00,2013-12-01 11:35:00,
2013-12-01 05:40:00,25.4,23.1,30.09,North,0,0.0,0.0,91,0.00,,,0.00,VWS V14.00,2013-12-01 11:40:00,
2013-12-01 05:45:00,25.3,23.0,30.09,North,0,0.0,0.0,91,0.00,,,0.00,VWS V14.00,2013-12-01 11:45:00,
2013-12-01 05:50:00,25.3,23.0,30.09,North,0,0.0,0.0,91,0.00,,,0.00,VWS V14.00,2013-12-01 11:50:00,
2013-12-01 05:55:00,25.2,23.0,30.10,North,0,0.0,0.0,91,0.00,,,0.00,VWS V14.00,2013-12-01 11:55:00,
2013-12-01 06:00:00,25.3,23.0,30.10,North,0,0.0,0.0,91,0.00,,,0.00,VWS V14.00,2013-12-01 12:00:00,
2013-12-01 06:05:00,25.3,23.3,30.10,North,0,0.0,0.0,92,0.00,,,0.00,VWS V14.00,2013-12-01 12:05:00,
2013-12-01 06:10:00,25.3,23.3,30.10,North,0,0.0,0.0,92,0.00,,,0.00,VWS V14.00,2013-12-01 12:10:00,
2013-12-01 06:15:00,25.3,23.3,30.10,North,0,0.0,0.0,92,0.00,,,0.00,VWS V14.00,2013-12-01 12:15:00,
2013-12-01 06:20:00,25.3,23.3,30.10,North,0,0.0,0.0,92,0.00,,,0.00,VWS V14.00,2013-12-01 12:20:00,
2013-12-01 06:25:00,25.3,23.3,30.10,North,0,0.0,0.0,92,0.00,,,0.00,VWS V14.00,2013-12-01 12:25:00,
2013-12-01 06:30:00,25.2,23.2,30.10,North,0,0.0,0.0,92,0.00,,,0.00,VWS V14.00,2013-12-01 12:30:00,
2013-12-01 06:35:00,25.3,23.3,30.11,North,0,0.0,0.0,92,0.00,,,0.00,VWS V14.00,2013-12-01 12:35:00,
2013-12-01 06:40:00,25.3,23.3,30.11,North,0,0.0,0.0,92,0.00,,,0.00,VWS V14.00,2013-12-01 12:40:00,
2013-12-01 06:45:00,25.2,23.2,30.11,North,0,0.0,0.0,92,0.00,,,0.00,VWS V14.00,2013-12-01 12:45:00,
2013-12-01 06:50:00,25.1,22.9,30.11,North,0,0.0,0.0,91,0.00,,,0.00,VWS V14.00,2013-12-01 12:50:00,
2013-12-01 06:55:00,25.0,22.8,30.11,North,0,0.0,0.0,91,0.00,,,0.00,VWS V14.00,2013-12-01 12:55:00,
2013-12-01 07:00:00,24.9,22.6,30.11,North,0,0.0,0.0,91,0.00,,,0.00,VWS V14.00,2013-12-01 13:00:00,
2013-12-01 07:05:00,24.8,22.5,30.11,North,0,0.0,0.0,91,0.00,,,0.00,VWS V14.00,2013-12-01 13:05:00,
2013-12-01 07:10:00,24.7,22.5,30.11,North,0,0.0,0.0,91,0.00,,,0.00,VWS V14.00,2013-12-01 13:10:00,
2013-12-01 07:15:00,24.6,22.4,30.11,North,0,0.0,0.0,91,0.00,,,0.00,VWS V14.00,2013-12-01 13:15:00,
2013-12-01 07:20:00,24.6,22.4,30.12,North,0,0.0,0.0,91,0.00,,,0.00,VWS V14.00,2013-12-01 13:20:00,
2013-12-01 07:25:00,24.5,22.2,30.11,North,0,0.0,0.0,91,0.00,,,0.00,VWS V14.00,2013-12-01 13:25:00,
2013-12-01 07:30:00,24.5,22.2,30.12,North,0,0.0,0.0,91,0.00,,,0.00,VWS V14.00,2013-12-01 13:30:00,
2013-12-01 07:35:00,24.6,22.4,30.12,North,0,0.0,0.0,91,0.00,,,0.00,VWS V14.00,2013-12-01 13:35:00,
2013-12-01 07:40:00,24.6,22.6,30.12,North,0,0.0,0.0,92,0.00,,,0.00,VWS V14.00,2013-12-01 13:40:00,
2013-12-01 07:45:00,24.7,22.7,30.12,North,0,0.0,0.0,92,0.00,,,0.00,VWS V14.00,2013-12-01 13:45:00,
2013-12-01 07:50:00,24.8,22.8,30.11,North,0,0.0,0.0,92,0.00,,,0.00,VWS V14.00,2013-12-01 13:50:00,
2013-12-01 07:55:00,25.0,23.0,30.11,North,0,0.0,0.0,92,0.00,,,0.00,VWS V14.00,2013-12-01 13:55:00,
2013-12-01 08:00:00,25.2,23.2,30.12,North,0,0.0,0.0,92,0.00,,,0.00,VWS V14.00,2013-12-01 14:00:00,
2013-12-01 08:05:00,25.3,23.3,30.12,North,0,0.0,0.0,92,0.00,,,0.00,VWS V14.00,2013-12-01 14:05:00,
2013-12-01 08:10:00,25.4,23.4,30.11,North,0,0.0,0.0,92,0.00,,,0.00,VWS V14.00,2013-12-01 14:10:00,
2013-12-01 08:15:00,25.7,23.7,30.11,North,0,0.0,0.0,92,0.00,,,0.00,VWS V14.00,2013-12-01 14:15:00,
2013-12-01 08:20:00,25.9,24.2,30.11,North,0,0.0,0.0,93,0.00,,,0.00,VWS V14.00,2013-12-01 14:20:00,
2013-12-01 08:29:00,25.9,24.2,30.11,North,0,0.0,0.0,93,0.00,,,0.00,VWS V14.00,2013-12-01 14:29:00,
2013-12-01 08:30:00,26.4,24.6,30.11,SW,226,0.0,0.0,93,0.00,,,0.00,VWS V14.00,2013-12-01 14:30:00,
2013-12-01 08:35:00,26.7,25.0,30.11,SW,226,0.0,0.0,93,0.00,,,0.00,VWS V14.00,2013-12-01 14:35:00,
2013-12-01 08:40:00,27.1,25.4,30.11,SW,226,0.0,0.0,93,0.00,,,0.00,VWS V14.00,2013-12-01 14:40:00,
2013-12-01 08:45:00,27.5,25.8,30.11,SW,226,0.0,0.0,93,0.00,,,0.00,VWS V14.00,2013-12-01 14:45:00,
2013-12-01 08:50:00,27.8,26.0,30.11,SW,226,0.0,0.0,93,0.00,,,0.00,VWS V14.00,2013-12-01 14:50:00,
2013-12-01 08:55:00,28.2,26.4,30.10,SW,226,0.0,0.0,93,0.00,,,0.00,VWS V14.00,2013-12-01 14:55:00,
2013-12-01 09:00:00,28.8,27.0,30.11,SW,226,0.0,0.0,93,0.00,,,0.00,VWS V14.00,2013-12-01 15:00:00,
2013-12-01 09:05:00,29.6,27.8,30.11,SW,226,0.0,0.0,93,0.00,,,0.00,VWS V14.00,2013-12-01 15:05:00,
2013-12-01 09:10:00,30.5,29.0,30.11,SSW,202,0.0,0.0,94,0.00,,,0.00,VWS V14.00,2013-12-01 15:10:00,
2013-12-01 09:15:00,30.9,29.4,30.10,SSW,202,0.0,0.0,94,0.00,,,0.00,VWS V14.00,2013-12-01 15:15:00,
2013-12-01 09:20:00,31.4,29.9,30.10,SSW,202,0.0,0.0,94,0.00,,,0.00,VWS V14.00,2013-12-01 15:20:00,
2013-12-01 09:25:00,32.0,30.5,30.10,SSW,202,0.0,0.0,94,0.00,,,0.00,VWS V14.00,2013-12-01 15:25:00,
2013-12-01 09:29:00,32.6,31.1,30.10,SSW,202,0.0,0.0,94,0.00,,,0.00,VWS V14.00,2013-12-01 15:29:00,
2013-12-01 09:30:00,32.7,31.2,30.10,SSW,202,0.0,0.0,94,0.00,,,0.00,VWS V14.00,2013-12-01 15:30:00,
2013-12-01 09:34:00,33.4,31.9,30.11,SSW,202,0.0,0.0,94,0.00,,,0.00,VWS V14.00,2013-12-01 15:34:00,
2013-12-01 09:35:00,33.4,31.9,30.11,SSW,201,0.0,0.0,94,0.00,,,0.00,VWS V14.00,2013-12-01 15:35:00,
2013-12-01 09:39:00,34.0,32.5,30.11,NNE,18,0.0,0.0,94,0.00,,,0.00,VWS V14.00,2013-12-01 15:39:00,
2013-12-01 09:40:00,34.1,32.6,30.11,NNE,20,0.0,0.0,94,0.00,,,0.00,VWS V14.00,2013-12-01 15:40:00,
2013-12-01 09:44:00,35.0,33.5,30.11,NNE,20,0.0,0.0,94,0.00,,,0.00,VWS V14.00,2013-12-01 15:44:00,
2013-12-01 09:45:00,35.1,33.5,30.11,NNE,20,0.0,0.0,94,0.00,,,0.00,VWS V14.00,2013-12-01 15:45:00,
2013-12-01 09:49:00,36.0,34.4,30.11,NE,35,0.0,0.0,94,0.00,,,0.00,VWS V14.00,2013-12-01 15:49:00,
2013-12-01 09:50:00,36.1,34.5,30.11,NE,35,0.0,0.0,94,0.00,,,0.00,VWS V14.00,2013-12-01 15:50:00,
2013-12-01 09:54:00,37.0,35.4,30.11,NE,35,0.0,0.0,94,0.00,,,0.00,VWS V14.00,2013-12-01 15:54:00,
2013-12-01 09:55:00,37.1,35.5,30.11,NE,43,0.0,0.0,94,0.00,,,0.00,VWS V14.00,2013-12-01 15:55:00,
2013-12-01 09:59:00,37.9,36.3,30.11,NE,52,0.0,0.0,94,0.00,,,0.00,VWS V14.00,2013-12-01 15:59:00,
2013-12-01 10:00:00,38.0,36.4,30.11,NE,52,0.0,0.0,94,0.00,,,0.00,VWS V14.00,2013-12-01 16:00:00,
2013-12-01 10:04:00,38.8,37.5,30.11,NE,47,0.0,0.0,95,0.00,,,0.00,VWS V14.00,2013-12-01 16:04:00,
2013-12-01 10:05:00,38.9,37.3,30.11,ENE,63,0.0,0.0,94,0.00,,,0.00,VWS V14.00,2013-12-01 16:05:00,
2013-12-01 10:09:00,39.7,38.1,30.11,NNE,31,0.0,0.0,94,0.00,,,0.00,VWS V14.00,2013-12-01 16:09:00,
2013-12-01 10:10:00,39.8,38.2,30.11,ENE,74,0.0,0.0,94,0.00,,,0.00,VWS V14.00,2013-12-01 16:10:00,
2013-12-01 10:14:00,40.7,39.4,30.11,NE,44,0.0,0.0,95,0.00,,,0.00,VWS V14.00,2013-12-01 16:14:00,
2013-12-01 10:15:00,40.8,39.2,30.11,NE,44,0.0,0.0,94,0.00,,,0.00,VWS V14.00,2013-12-01 16:15:00,
2013-12-01 10:19:00,41.6,40.3,30.11,NNE,31,0.0,0.0,95,0.00,,,0.00,VWS V14.00,2013-12-01 16:19:00,
2013-12-01 10:20:00,41.7,40.4,30.11,NNE,31,0.0,0.0,95,0.00,,,0.00,VWS V14.00,2013-12-01 16:20:00,
2013-12-01 10:24:00,42.4,40.8,30.11,NE,40,0.0,0.0,94,0.00,,,0.00,VWS V14.00,2013-12-01 16:24:00,
2013-12-01 10:25:00,42.6,41.0,30.11,NE,46,0.0,0.0,94,0.00,,,0.00,VWS V14.00,2013-12-01 16:25:00,
2013-12-01 10:29:00,43.4,40.7,30.11,NE,45,0.0,0.0,90,0.00,,,0.00,VWS V14.00,2013-12-01 16:29:00,
2013-12-01 10:30:00,43.5,40.8,30.11,NE,45,0.0,0.0,90,0.00,,,0.00,VWS V14.00,2013-12-01 16:30:00,
2013-12-01 10:34:00,44.4,40.5,30.11,NE,37,0.0,0.0,86,0.00,,,0.00,VWS V14.00,2013-12-01 16:34:00,
2013-12-01 10:35:00,44.5,40.3,30.11,NE,37,0.0,0.0,85,0.00,,,0.00,VWS V14.00,2013-12-01 16:35:00,
2013-12-01 10:39:00,45.4,40.5,30.11,NE,53,0.0,0.0,83,0.00,,,0.00,VWS V14.00,2013-12-01 16:39:00,
2013-12-01 10:40:00,45.6,40.4,30.11,NE,53,0.0,0.0,82,0.00,,,0.00,VWS V14.00,2013-12-01 16:40:00,
2013-12-01 10:44:00,46.6,40.8,30.10,ENE,74,0.0,0.0,80,0.00,,,0.00,VWS V14.00,2013-12-01 16:44:00,
2013-12-01 10:45:00,46.8,40.6,30.10,ENE,74,0.0,0.0,79,0.00,,,0.00,VWS V14.00,2013-12-01 16:45:00,
2013-12-01 10:49:00,47.7,40.2,30.10,East,86,0.0,1.0,75,0.00,,,0.00,VWS V14.00,2013-12-01 16:49:00,
2013-12-01 10:50:00,47.8,39.9,30.10,ENE,73,0.0,1.0,74,0.00,,,0.00,VWS V14.00,2013-12-01 16:50:00,
2013-12-01 10:54:00,48.6,40.7,30.10,NNE,32,0.0,6.0,74,0.00,,,0.00,VWS V14.00,2013-12-01 16:54:00,
2013-12-01 10:55:00,48.7,40.8,30.10,NE,35,1.0,6.0,74,0.00,,,0.00,VWS V14.00,2013-12-01 16:55:00,
2013-12-01 10:59:00,49.4,40.4,30.09,NE,36,0.0,7.0,71,0.00,,,0.00,VWS V14.00,2013-12-01 16:59:00,
2013-12-01 11:00:00,49.5,40.5,30.09,NE,36,2.0,7.0,71,0.00,,,0.00,VWS V14.00,2013-12-01 17:00:00,
2013-12-01 11:04:00,50.2,40.1,30.09,ENE,77,5.0,6.0,68,0.00,,,0.00,VWS V14.00,2013-12-01 17:04:00,
2013-12-01 11:05:00,50.3,40.2,30.09,East,85,3.0,6.0,68,0.00,,,0.00,VWS V14.00,2013-12-01 17:05:00,
2013-12-01 11:09:00,50.7,40.2,30.09,East,99,4.0,6.0,67,0.00,,,0.00,VWS V14.00,2013-12-01 17:09:00,
2013-12-01 11:10:00,50.8,40.2,30.09,East,82,5.0,6.0,67,0.00,,,0.00,VWS V14.00,2013-12-01 17:10:00,
2013-12-01 11:14:00,51.1,39.8,30.08,NE,35,4.0,7.0,65,0.00,,,0.00,VWS V14.00,2013-12-01 17:14:00,
2013-12-01 11:15:00,51.2,40.2,30.08,NE,44,4.0,8.0,66,0.00,,,0.00,VWS V14.00,2013-12-01 17:15:00,
2013-12-01 11:19:00,51.5,39.7,30.08,East,79,2.0,6.0,64,0.00,,,0.00,VWS V14.00,2013-12-01 17:19:00,
2013-12-01 11:20:00,51.5,39.7,30.08,East,83,3.0,6.0,64,0.00,,,0.00,VWS V14.00,2013-12-01 17:20:00,
2013-12-01 11:24:00,51.7,39.5,30.08,ENE,72,3.0,5.0,63,0.00,,,0.00,VWS V14.00,2013-12-01 17:24:00,
2013-12-01 11:25:00,51.8,39.6,30.08,ENE,61,6.0,7.0,63,0.00,,,0.00,VWS V14.00,2013-12-01 17:25:00,
2013-12-01 11:29:00,52.2,40.0,30.08,NE,54,2.0,6.0,63,0.00,,,0.00,VWS V14.00,2013-12-01 17:29:00,
2013-12-01 11:30:00,52.3,40.1,30.08,NE,54,0.0,6.0,63,0.00,,,0.00,VWS V14.00,2013-12-01 17:30:00,
2013-12-01 11:34:00,52.9,39.4,30.07,ENE,75,0.0,1.0,60,0.00,,,0.00,VWS V14.00,2013-12-01 17:34:00,
2013-12-01 11:35:00,53.0,39.5,30.07,ENE,75,0.0,1.0,60,0.00,,,0.00,VWS V14.00,2013-12-01 17:35:00,
2013-12-01 11:39:00,53.4,39.9,30.07,ENE,65,1.0,8.0,60,0.00,,,0.00,VWS V14.00,2013-12-01 17:39:00,
2013-12-01 11:40:00,53.5,40.4,30.07,ENE,65,0.0,8.0,61,0.00,,,0.00,VWS V14.00,2013-12-01 17:40:00,
2013-12-01 11:44:00,53.9,39.9,30.07,ESE,106,0.0,2.0,59,0.00,,,0.00,VWS V14.00,2013-12-01 17:44:00,
2013-12-01 11:45:00,53.9,39.9,30.07,ESE,106,0.0,2.0,59,0.00,,,0.00,VWS V14.00,2013-12-01 17:45:00,
2013-12-01 11:49:00,54.2,40.2,30.06,ENE,76,0.0,2.0,59,0.00,,,0.00,VWS V14.00,2013-12-01 17:49:00,
2013-12-01 11:50:00,54.3,40.7,30.06,ENE,75,0.0,2.0,60,0.00,,,0.00,VWS V14.00,2013-12-01 17:50:00,
2013-12-01 11:54:00,54.8,40.8,30.06,ENE,75,0.0,1.0,59,0.00,,,0.00,VWS V14.00,2013-12-01 17:54:00,
2013-12-01 11:55:00,54.9,40.9,30.06,East,85,0.0,1.0,59,0.00,,,0.00,VWS V14.00,2013-12-01 17:55:00,
2013-12-01 11:59:00,55.2,39.8,30.06,ESE,114,2.0,5.0,56,0.00,,,0.00,VWS V14.00,2013-12-01 17:59:00,
2013-12-01 12:00:00,55.2,39.8,30.06,ESE,110,2.0,5.0,56,0.00,,,0.00,VWS V14.00,2013-12-01 18:00:00,
2013-12-01 12:04:00,55.3,39.9,30.06,ENE,76,0.0,2.0,56,0.00,,,0.00,VWS V14.00,2013-12-01 18:04:00,
2013-12-01 12:05:00,55.4,40.0,30.06,ENE,76,1.0,2.0,56,0.00,,,0.00,VWS V14.00,2013-12-01 18:05:00,
2013-12-01 12:09:00,55.5,39.6,30.06,ESE,112,1.0,2.0,55,0.00,,,0.00,VWS V14.00,2013-12-01 18:09:00,
2013-12-01 12:10:00,55.5,39.6,30.06,ESE,110,1.0,2.0,55,0.00,,,0.00,VWS V14.00,2013-12-01 18:10:00,
2013-12-01 12:14:00,55.5,40.1,30.05,East,93,1.0,2.0,56,0.00,,,0.00,VWS V14.00,2013-12-01 18:14:00,
2013-12-01 12:15:00,55.5,39.6,30.05,ESE,107,1.0,2.0,55,0.00,,,0.00,VWS V14.00,2013-12-01 18:15:00,
2013-12-01 12:19:00,55.6,39.7,30.05,ENE,76,0.0,1.0,55,0.00,,,0.00,VWS V14.00,2013-12-01 18:19:00,
2013-12-01 12:20:00,55.7,39.8,30.05,East,79,0.0,1.0,55,0.00,,,0.00,VWS V14.00,2013-12-01 18:20:00,
2013-12-01 12:24:00,55.8,39.9,30.05,ESE,108,0.0,2.0,55,0.00,,,0.00,VWS V14.00,2013-12-01 18:24:00,
2013-12-01 12:25:00,55.9,39.5,30.05,ESE,106,1.0,2.0,54,0.00,,,0.00,VWS V14.00,2013-12-01 18:25:00,
2013-12-01 12:29:00,56.1,39.2,30.04,ESE,110,1.0,2.0,53,0.00,,,0.00,VWS V14.00,2013-12-01 18:29:00,
2013-12-01 12:30:00,56.2,39.3,30.04,ESE,108,0.0,2.0,53,0.00,,,0.00,VWS V14.00,2013-12-01 18:30:00,
2013-12-01 12:34:00,56.5,39.1,30.03,ESE,120,1.0,2.0,52,0.00,,,0.00,VWS V14.00,2013-12-01 18:34:00,
2013-12-01 12:35:00,56.5,39.1,30.03,ESE,114,0.0,2.0,52,0.00,,,0.00,VWS V14.00,2013-12-01 18:35:00,
2013-12-01 12:39:00,56.7,39.8,30.03,ESE,118,6.0,8.0,53,0.00,,,0.00,VWS V14.00,2013-12-01 18:39:00,
2013-12-01 12:40:00,56.7,39.3,30.03,ENE,70,3.0,8.0,52,0.00,,,0.00,VWS V14.00,2013-12-01 18:40:00,
2013-12-01 12:44:00,56.9,40.0,30.03,East,81,0.0,7.0,53,0.00,,,0.00,VWS V14.00,2013-12-01 18:44:00,
2013-12-01 12:45:00,57.0,40.1,30.03,East,93,2.0,7.0,53,0.00,,,0.00,VWS V14.00,2013-12-01 18:45:00,
2013-12-01 12:49:00,57.4,39.4,30.03,ENE,72,0.0,2.0,51,0.00,,,0.00,VWS V14.00,2013-12-01 18:49:00,
2013-12-01 12:50:00,57.5,39.5,30.03,ENE,72,0.0,2.0,51,0.00,,,0.00,VWS V14.00,2013-12-01 18:50:00,
2013-12-01 12:54:00,57.7,39.2,30.02,ENE,72,0.0,1.0,50,0.00,,,0.00,VWS V14.00,2013-12-01 18:54:00,
2013-12-01 12:55:00,57.7,39.2,30.02,ENE,72,0.0,1.0,50,0.00,,,0.00,VWS V14.00,2013-12-01 18:55:00,
2013-12-01 12:59:00,57.9,39.9,30.02,ENE,72,0.0,2.0,51,0.00,,,0.00,VWS V14.00,2013-12-01 18:59:00,
2013-12-01 13:00:00,57.9,39.4,30.02,ENE,72,0.0,2.0,50,0.00,,,0.00,VWS V14.00,2013-12-01 19:00:00,
2013-12-01 13:04:00,58.1,39.6,30.02,ESE,113,2.0,2.0,50,0.00,,,0.00,VWS V14.00,2013-12-01 19:04:00,
2013-12-01 13:05:00,58.1,39.6,30.02,ESE,113,0.0,2.0,50,0.00,,,0.00,VWS V14.00,2013-12-01 19:05:00,
2013-12-01 13:09:00,57.8,39.3,30.01,ESE,113,0.0,1.0,50,0.00,,,0.00,VWS V14.00,2013-12-01 19:09:00,
2013-12-01 13:10:00,57.8,39.3,30.01,ESE,116,0.0,1.0,50,0.00,,,0.00,VWS V14.00,2013-12-01 19:10:00,
2013-12-01 13:14:00,57.9,39.4,30.01,ESE,116,0.0,1.0,50,0.00,,,0.00,VWS V14.00,2013-12-01 19:14:00,
2013-12-01 13:15:00,58.0,40.0,30.01,ESE,116,0.0,1.0,51,0.00,,,0.00,VWS V14.00,2013-12-01 19:15:00,
2013-12-01 13:19:00,58.1,39.6,30.01,ESE,116,1.0,2.0,50,0.00,,,0.00,VWS V14.00,2013-12-01 19:19:00,
2013-12-01 13:20:00,58.1,40.1,30.01,ESE,109,1.0,2.0,51,0.00,,,0.00,VWS V14.00,2013-12-01 19:20:00,
2013-12-01 13:24:00,58.2,39.2,30.00,ESE,108,0.0,1.0,49,0.00,,,0.00,VWS V14.00,2013-12-01 19:24:00,
2013-12-01 13:25:00,58.1,39.1,30.00,ESE,108,0.0,1.0,49,0.00,,,0.00,VWS V14.00,2013-12-01 19:25:00,
2013-12-01 13:29:00,58.1,39.6,30.00,East,84,0.0,1.0,50,0.00,,,0.00,VWS V14.00,2013-12-01 19:29:00,
2013-12-01 13:30:00,58.1,39.6,30.00,East,100,2.0,2.0,50,0.00,,,0.00,VWS V14.00,2013-12-01 19:30:00,
2013-12-01 13:34:00,57.8,39.8,30.00,East,81,1.0,2.0,51,0.00,,,0.00,VWS V14.00,2013-12-01 19:34:00,
2013-12-01 13:35:00,57.8,39.3,30.00,East,84,0.0,2.0,50,0.00,,,0.00,VWS V14.00,2013-12-01 19:35:00,
2013-12-01 13:38:00,57.8,39.3,30.00,East,85,1.0,2.0,50,0.00,,,0.00,VWS V14.00,2013-12-01 19:38:00,
2013-12-01 13:40:00,57.9,39.4,30.00,East,85,0.0,2.0,50,0.00,,,0.00,VWS V14.00,2013-12-01 19:40:00,
2013-12-01 13:43:00,57.9,39.4,29.99,East,89,1.0,1.0,50,0.00,,,0.00,VWS V14.00,2013-12-01 19:43:00,
2013-12-01 13:45:00,57.9,39.4,29.99,East,89,0.0,1.0,50,0.00,,,0.00,VWS V14.00,2013-12-01 19:45:00,
2013-12-01 13:48:00,57.7,39.7,29.99,East,89,0.0,0.0,51,0.00,,,0.00,VWS V14.00,2013-12-01 19:48:00,
2013-12-01 13:50:00,57.7,39.2,29.99,ENE,78,0.0,2.0,50,0.00,,,0.00,VWS V14.00,2013-12-01 19:50:00,
2013-12-01 13:53:00,57.9,39.4,29.99,East,79,0.0,1.0,50,0.00,,,0.00,VWS V14.00,2013-12-01 19:53:00,
2013-12-01 13:55:00,58.0,39.5,29.99,East,79,0.0,1.0,50,0.00,,,0.00,VWS V14.00,2013-12-01 19:55:00,
2013-12-01 13:58:00,58.1,39.6,29.99,ENE,77,0.0,1.0,50,0.00,,,0.00,VWS V14.00,2013-12-01 19:58:00,
2013-12-01 14:00:00,58.2,39.7,29.99,East,87,0.0,2.0,50,0.00,,,0.00,VWS V14.00,2013-12-01 20:00:00,
2013-12-01 14:03:00,58.3,39.8,29.98,East,80,0.0,2.0,50,0.00,,,0.00,VWS V14.00,2013-12-01 20:03:00,
2013-12-01 14:05:00,58.4,39.3,29.98,ENE,74,0.0,2.0,49,0.00,,,0.00,VWS V14.00,2013-12-01 20:05:00,
2013-12-01 14:08:00,58.6,40.5,29.98,ENE,76,0.0,1.0,51,0.00,,,0.00,VWS V14.00,2013-12-01 20:08:00,
2013-12-01 14:10:00,58.6,39.5,29.98,SE,135,1.0,2.0,49,0.00,,,0.00,VWS V14.00,2013-12-01 20:10:00,
2013-12-01 14:13:00,58.4,39.3,29.98,SE,135,1.0,2.0,49,0.00,,,0.00,VWS V14.00,2013-12-01 20:13:00,
2013-12-01 14:15:00,58.4,39.8,29.98,SE,133,0.0,2.0,50,0.00,,,0.00,VWS V14.00,2013-12-01 20:15:00,
2013-12-01 14:18:00,58.6,40.0,29.98,SE,133,0.0,0.0,50,0.00,,,0.00,VWS V14.00,2013-12-01 20:18:00,
2013-12-01 14:20:00,58.8,39.7,29.98,ESE,112,1.0,1.0,49,0.00,,,0.00,VWS V14.00,2013-12-01 20:20:00,
2013-12-01 14:23:00,59.0,39.9,29.98,East,79,2.0,3.0,49,0.00,,,0.00,VWS V14.00,2013-12-01 20:23:00,
2013-12-01 14:25:00,59.1,40.0,29.98,East,81,1.0,3.0,49,0.00,,,0.00,VWS V14.00,2013-12-01 20:25:00,
2013-12-01 14:28:00,59.3,40.2,29.97,East,95,1.0,3.0,49,0.00,,,0.00,VWS V14.00,2013-12-01 20:28:00,
2013-12-01 14:30:00,59.3,39.6,29.97,East,95,0.0,3.0,48,0.00,,,0.00,VWS V14.00,2013-12-01 20:30:00,
2013-12-01 14:33:00,59.2,40.1,29.97,East,95,0.0,0.0,49,0.00,,,0.00,VWS V14.00,2013-12-01 20:33:00,
2013-12-01 14:35:00,59.3,40.2,29.97,East,95,0.0,0.0,49,0.00,,,0.00,VWS V14.00,2013-12-01 20:35:00,
2013-12-01 14:38:00,59.5,40.3,29.97,East,95,0.0,0.0,49,0.00,,,0.00,VWS V14.00,2013-12-01 20:38:00,
2013-12-01 14:40:00,59.8,40.1,29.97,East,95,0.0,0.0,48,0.00,,,0.00,VWS V14.00,2013-12-01 20:40:00,
2013-12-01 14:43:00,59.9,40.2,29.97,East,95,0.0,0.0,48,0.00,,,0.00,VWS V14.00,2013-12-01 20:43:00,
2013-12-01 14:45:00,60.0,40.3,29.97,East,95,0.0,0.0,48,0.00,,,0.00,VWS V14.00,2013-12-01 20:45:00,
2013-12-01 14:48:00,60.1,40.4,29.97,East,95,0.0,0.0,48,0.00,,,0.00,VWS V14.00,2013-12-01 20:48:00,
2013-12-01 14:50:00,60.2,39.9,29.97,East,95,0.0,0.0,47,0.00,,,0.00,VWS V14.00,2013-12-01 20:50:00,
2013-12-01 14:53:00,60.3,40.0,29.97,East,95,0.0,0.0,47,0.00,,,0.00,VWS V14.00,2013-12-01 20:53:00,
2013-12-01 14:55:00,60.2,39.9,29.97,East,95,0.0,0.0,47,0.00,,,0.00,VWS V14.00,2013-12-01 20:55:00,
2013-12-01 14:58:00,60.2,39.9,29.97,East,95,0.0,0.0,47,0.00,,,0.00,VWS V14.00,2013-12-01 20:58:00,
2013-12-01 15:00:00,60.1,40.4,29.97,ESE,118,1.0,2.0,48,0.00,,,0.00,VWS V14.00,2013-12-01 21:00:00,
2013-12-01 15:03:00,59.8,40.1,29.96,ESE,118,1.0,1.0,48,0.00,,,0.00,VWS V14.00,2013-12-01 21:03:00,
2013-12-01 15:05:00,59.4,39.7,29.96,SE,137,0.0,2.0,48,0.00,,,0.00,VWS V14.00,2013-12-01 21:05:00,
2013-12-01 15:08:00,59.3,40.2,29.96,SE,137,0.0,2.0,49,0.00,,,0.00,VWS V14.00,2013-12-01 21:08:00,
2013-12-01 15:10:00,59.2,40.1,29.96,SE,137,0.0,2.0,49,0.00,,,0.00,VWS V14.00,2013-12-01 21:10:00,
2013-12-01 15:13:00,59.0,39.9,29.96,SE,137,0.0,0.0,49,0.00,,,0.00,VWS V14.00,2013-12-01 21:13:00,
2013-12-01 15:15:00,59.0,39.9,29.96,SE,137,0.0,0.0,49,0.00,,,0.00,VWS V14.00,2013-12-01 21:15:00,
2013-12-01 15:18:00,58.9,40.3,29.96,SE,137,0.0,0.0,50,0.00,,,0.00,VWS V14.00,2013-12-01 21:18:00,
2013-12-01 15:20:00,58.8,40.2,29.96,ESE,112,0.0,0.0,50,0.00,,,0.00,VWS V14.00,2013-12-01 21:20:00,
2013-12-01 15:23:00,58.9,40.3,29.96,ESE,112,0.0,1.0,50,0.00,,,0.00,VWS V14.00,2013-12-01 21:23:00,
2013-12-01 15:25:00,58.8,39.7,29.96,ESE,112,0.0,1.0,49,0.00,,,0.00,VWS V14.00,2013-12-01 21:25:00,
2013-12-01 15:28:00,58.8,40.2,29.96,ESE,112,0.0,0.0,50,0.00,,,0.00,VWS V14.00,2013-12-01 21:28:00,
2013-12-01 15:30:00,58.9,40.3,29.97,ESE,112,0.0,0.0,50,0.00,,,0.00,VWS V14.00,2013-12-01 21:30:00,
2013-12-01 15:33:00,58.9,40.3,29.97,NNE,24,1.0,1.0,50,0.00,,,0.00,VWS V14.00,2013-12-01 21:33:00,
2013-12-01 15:35:00,58.9,40.3,29.96,NNE,24,0.0,2.0,50,0.00,,,0.00,VWS V14.00,2013-12-01 21:35:00,
2013-12-01 15:38:00,58.9,40.3,29.96,NNE,24,0.0,2.0,50,0.00,,,0.00,VWS V14.00,2013-12-01 21:38:00,
2013-12-01 15:40:00,58.9,40.3,29.96,NNE,24,0.0,2.0,50,0.00,,,0.00,VWS V14.00,2013-12-01 21:40:00,
2013-12-01 15:43:00,58.9,40.3,29.96,NNE,24,0.0,0.0,50,0.00,,,0.00,VWS V14.00,2013-12-01 21:43:00,
2013-12-01 15:45:00,58.8,40.2,29.96,NNE,24,0.0,0.0,50,0.00,,,0.00,VWS V14.00,2013-12-01 21:45:00,
2013-12-01 15:48:00,58.6,40.0,29.96,NNE,24,0.0,0.0,50,0.00,,,0.00,VWS V14.00,2013-12-01 21:48:00,
2013-12-01 15:50:00,58.6,40.0,29.96,NNE,24,0.0,0.0,50,0.00,,,0.00,VWS V14.00,2013-12-01 21:50:00,
2013-12-01 15:53:00,58.5,39.9,29.96,NNE,24,0.0,0.0,50,0.00,,,0.00,VWS V14.00,2013-12-01 21:53:00,
2013-12-01 15:55:00,58.4,39.8,29.96,NNE,24,0.0,0.0,50,0.00,,,0.00,VWS V14.00,2013-12-01 21:55:00,
2013-12-01 15:58:00,58.2,39.7,29.96,NNE,24,0.0,0.0,50,0.00,,,0.00,VWS V14.00,2013-12-01 21:58:00,
2013-12-01 16:00:00,58.1,40.1,29.96,NNE,24,0.0,0.0,51,0.00,,,0.00,VWS V14.00,2013-12-01 22:00:00,
2013-12-01 16:03:00,57.8,39.8,29.95,NNE,24,0.0,0.0,51,0.00,,,0.00,VWS V14.00,2013-12-01 22:03:00,
2013-12-01 16:05:00,57.7,39.7,29.95,NNE,24,0.0,0.0,51,0.00,,,0.00,VWS V14.00,2013-12-01 22:05:00,
2013-12-01 16:08:00,57.5,39.5,29.95,NNE,24,0.0,0.0,51,0.00,,,0.00,VWS V14.00,2013-12-01 22:08:00,
2013-12-01 16:10:00,57.4,39.4,29.95,NNE,24,0.0,0.0,51,0.00,,,0.00,VWS V14.00,2013-12-01 22:10:00,
2013-12-01 16:12:00,57.3,39.3,29.95,NNE,24,0.0,2.0,51,0.00,,,0.00,VWS V14.00,2013-12-01 22:12:00,
2013-12-01 16:15:00,57.2,39.8,29.95,NNE,24,0.0,2.0,52,0.00,,,0.00,VWS V14.00,2013-12-01 22:15:00,
2013-12-01 16:17:00,56.9,39.0,29.95,NNE,24,0.0,0.0,51,0.00,,,0.00,VWS V14.00,2013-12-01 22:17:00,
2013-12-01 16:20:00,56.7,39.3,29.96,NNE,24,0.0,2.0,52,0.00,,,0.00,VWS V14.00,2013-12-01 22:20:00,
2013-12-01 16:22:00,56.5,39.1,29.95,NNE,24,0.0,1.0,52,0.00,,,0.00,VWS V14.00,2013-12-01 22:22:00,
2013-12-01 16:25:00,56.2,39.3,29.95,NNE,24,0.0,1.0,53,0.00,,,0.00,VWS V14.00,2013-12-01 22:25:00,
2013-12-01 16:27:00,56.0,39.1,29.95,NNE,24,0.0,0.0,53,0.00,,,0.00,VWS V14.00,2013-12-01 22:27:00,
2013-12-01 16:30:00,55.7,38.8,29.95,NNE,24,0.0,0.0,53,0.00,,,0.00,VWS V14.00,2013-12-01 22:30:00,
2013-12-01 16:32:00,55.5,39.1,29.95,NNE,24,0.0,0.0,54,0.00,,,0.00,VWS V14.00,2013-12-01 22:32:00,
2013-12-01 16:35:00,55.2,38.9,29.95,NNE,24,0.0,0.0,54,0.00,,,0.00,VWS V14.00,2013-12-01 22:35:00,
2013-12-01 16:37:00,55.0,39.2,29.95,NNE,24,0.0,0.0,55,0.00,,,0.00,VWS V14.00,2013-12-01 22:37:00,
2013-12-01 16:40:00,54.7,38.9,29.95,NNE,24,0.0,0.0,55,0.00,,,0.00,VWS V14.00,2013-12-01 22:40:00,
2013-12-01 16:42:00,54.5,38.7,29.95,NNE,24,0.0,0.0,55,0.00,,,0.00,VWS V14.00,2013-12-01 22:42:00,
2013-12-01 16:45:00,54.1,38.8,29.95,NNE,24,0.0,0.0,56,0.00,,,0.00,VWS V14.00,2013-12-01 22:45:00,
2013-12-01 16:47:00,53.9,38.6,29.95,NNE,24,0.0,0.0,56,0.00,,,0.00,VWS V14.00,2013-12-01 22:47:00,
2013-12-01 16:50:00,53.6,38.8,29.95,NNE,24,0.0,0.0,57,0.00,,,0.00,VWS V14.00,2013-12-01 22:50:00,
2013-12-01 16:52:00,53.3,38.5,29.95,NNE,24,0.0,0.0,57,0.00,,,0.00,VWS V14.00,2013-12-01 22:52:00,
2013-12-01 16:55:00,53.1,38.3,29.95,NNE,24,0.0,0.0,57,0.00,,,0.00,VWS V14.00,2013-12-01 22:55:00,
2013-12-01 16:57:00,52.8,38.5,29.95,NNE,24,0.0,0.0,58,0.00,,,0.00,VWS V14.00,2013-12-01 22:57:00,
2013-12-01 17:00:00,52.5,38.6,29.95,NNE,24,0.0,2.0,59,0.00,,,0.00,VWS V14.00,2013-12-01 23:00:00,
2013-12-01 17:02:00,52.3,38.4,29.95,NNE,24,1.0,2.0,59,0.00,,,0.00,VWS V14.00,2013-12-01 23:02:00,
2013-12-01 17:05:00,52.0,38.1,29.95,NNE,24,1.0,2.0,59,0.00,,,0.00,VWS V14.00,2013-12-01 23:05:00,
2013-12-01 17:07:00,51.8,38.4,29.95,NNE,24,0.0,1.0,60,0.00,,,0.00,VWS V14.00,2013-12-01 23:07:00,
2013-12-01 17:10:00,51.5,38.1,29.95,NNE,24,0.0,2.0,60,0.00,,,0.00,VWS V14.00,2013-12-01 23:10:00,
2013-12-01 17:12:00,51.2,38.2,29.95,NNE,24,0.0,1.0,61,0.00,,,0.00,VWS V14.00,2013-12-01 23:12:00,
2013-12-01 17:15:00,51.0,38.0,29.95,NNE,24,0.0,1.0,61,0.00,,,0.00,VWS V14.00,2013-12-01 23:15:00,
2013-12-01 17:17:00,50.7,37.8,29.95,NNE,24,0.0,0.0,61,0.00,,,0.00,VWS V14.00,2013-12-01 23:17:00,
2013-12-01 17:20:00,50.4,37.9,29.95,North,0,0.0,0.0,62,0.00,,,0.00,VWS V14.00,2013-12-01 23:20:00,
2013-12-01 17:25:00,49.9,37.8,29.95,North,0,0.0,0.0,63,0.00,,,0.00,VWS V14.00,2013-12-01 23:25:00,
2013-12-01 17:30:00,49.4,37.8,29.94,North,0,0.0,0.0,64,0.00,,,0.00,VWS V14.00,2013-12-01 23:30:00,
2013-12-01 17:35:00,48.8,37.6,29.94,North,0,0.0,0.0,65,0.00,,,0.00,VWS V14.00,2013-12-01 23:35:00,
2013-12-01 17:40:00,48.2,37.4,29.94,NE,45,0.0,2.0,66,0.00,,,0.00,VWS V14.00,2013-12-01 23:40:00,
2013-12-01 17:45:00,47.6,37.2,29.94,NE,45,1.0,3.0,67,0.00,,,0.00,VWS V14.00,2013-12-01 23:45:00,
2013-12-01 17:50:00,47.1,37.1,29.94,ENE,68,2.0,3.0,68,0.00,,,0.00,VWS V14.00,2013-12-01 23:50:00,
2013-12-01 17:55:00,46.6,37.0,29.94,ENE,68,1.0,3.0,69,0.00,,,0.00,VWS V14.00,2013-12-01 23:55:00,
2013-12-01 18:00:00,46.3,37.1,29.94,ENE,68,1.0,2.0,70,0.00,,,0.00,VWS V14.00,2013-12-02 00:00:00,
2013-12-01 18:05:00,46.0,36.4,29.95,ENE,68,0.0,0.0,69,0.00,,,0.00,VWS V14.00,2013-12-02 00:05:00,
2013-12-01 18:10:00,45.5,36.3,29.95,ENE,68,0.0,1.0,70,0.00,,,0.00,VWS V14.00,2013-12-02 00:10:00,
2013-12-01 18:23:00,45.1,36.6,29.95,ENE,68,0.0,1.0,72,0.00,,,0.00,VWS V14.00,2013-12-02 00:23:00,
2013-12-01 18:28:00,43.9,36.2,29.94,ENE,62,1.0,2.0,74,0.00,,,0.00,VWS V14.00,2013-12-02 00:28:00,
2013-12-01 18:33:00,43.6,35.9,29.94,ENE,62,1.0,2.0,74,0.00,,,0.00,VWS V14.00,2013-12-02 00:33:00,
2013-12-01 18:38:00,43.3,35.9,29.94,ENE,68,1.0,2.0,75,0.00,,,0.00,VWS V14.00,2013-12-02 00:38:00,
2013-12-01 18:43:00,43.1,36.1,29.94,ENE,68,1.0,2.0,76,0.00,,,0.00,VWS V14.00,2013-12-02 00:43:00,
2013-12-01 18:48:00,42.9,35.9,29.94,ENE,68,1.0,1.0,76,0.00,,,0.00,VWS V14.00,2013-12-02 00:48:00,
2013-12-01 18:53:00,42.8,35.8,29.94,ENE,68,0.0,0.0,76,0.00,,,0.00,VWS V14.00,2013-12-02 00:53:00,
2013-12-01 18:58:00,42.5,35.5,29.94,ENE,68,0.0,0.0,76,0.00,,,0.00,VWS V14.00,2013-12-02 00:58:00,
2013-12-01 19:03:00,42.2,35.2,29.94,ENE,68,0.0,0.0,76,0.00,,,0.00,VWS V14.00,2013-12-02 01:03:00,
2013-12-01 19:08:00,42.0,35.3,29.94,ENE,68,0.0,0.0,77,0.00,,,0.00,VWS V14.00,2013-12-02 01:08:00,
2013-12-01 19:13:00,41.8,35.1,29.94,ENE,68,0.0,0.0,77,0.00,,,0.00,VWS V14.00,2013-12-02 01:13:00,
2013-12-01 19:18:00,41.6,35.3,29.93,ENE,68,1.0,2.0,78,0.00,,,0.00,VWS V14.00,2013-12-02 01:18:00,
2013-12-01 19:23:00,41.5,35.5,29.93,ENE,68,2.0,2.0,79,0.00,,,0.00,VWS V14.00,2013-12-02 01:23:00,
2013-12-01 19:28:00,41.4,35.4,29.92,ENE,74,2.0,3.0,79,0.00,,,0.00,VWS V14.00,2013-12-02 01:28:00,
2013-12-01 19:33:00,41.3,35.6,29.92,ENE,74,0.0,2.0,80,0.00,,,0.00,VWS V14.00,2013-12-02 01:33:00,
2013-12-01 19:38:00,41.3,35.0,29.93,ENE,74,1.0,1.0,78,0.00,,,0.00,VWS V14.00,2013-12-02 01:38:00,
2013-12-01 19:43:00,41.1,34.8,29.93,ENE,74,1.0,2.0,78,0.00,,,0.00,VWS V14.00,2013-12-02 01:43:00,
2013-12-01 19:48:00,40.9,34.9,29.93,ENE,74,1.0,2.0,79,0.00,,,0.00,VWS V14.00,2013-12-02 01:48:00,
2013-12-01 19:53:00,40.7,34.7,29.92,ENE,78,3.0,3.0,79,0.00,,,0.00,VWS V14.00,2013-12-02 01:53:00,
2013-12-01 19:58:00,40.5,34.5,29.92,East,83,3.0,3.0,79,0.00,,,0.00,VWS V14.00,2013-12-02 01:58:00,
2013-12-01 20:03:00,40.2,34.8,29.92,East,83,0.0,2.0,81,0.00,,,0.00,VWS V14.00,2013-12-02 02:03:00,
2013-12-01 20:08:00,40.2,34.5,29.92,East,83,0.0,2.0,80,0.00,,,0.00,VWS V14.00,2013-12-02 02:08:00,
2013-12-01 20:13:00,40.0,34.0,29.92,East,83,0.0,0.0,79,0.00,,,0.00,VWS V14.00,2013-12-02 02:13:00,
2013-12-01 20:18:00,39.7,33.4,29.93,East,83,2.0,2.0,78,0.00,,,0.00,VWS V14.00,2013-12-02 02:18:00,
2013-12-01 20:23:00,39.4,33.1,29.93,East,83,0.0,0.0,78,0.00,,,0.00,VWS V14.00,2013-12-02 02:23:00,
2013-12-01 20:28:00,39.1,33.2,29.92,East,83,0.0,0.0,79,0.00,,,0.00,VWS V14.00,2013-12-02 02:28:00,
2013-12-01 20:33:00,38.9,33.3,29.92,East,83,0.0,0.0,80,0.00,,,0.00,VWS V14.00,2013-12-02 02:33:00,
2013-12-01 20:40:00,39.0,34.0,29.92,North,0,0.0,0.0,82,0.00,,,0.00,VWS V14.00,2013-12-02 02:40:00,
2013-12-01 20:45:00,39.0,34.0,29.92,North,0,0.0,0.0,82,0.00,,,0.00,VWS V14.00,2013-12-02 02:45:00,
2013-12-01 20:50:00,39.0,34.0,29.91,North,0,0.0,0.0,82,0.00,,,0.00,VWS V14.00,2013-12-02 02:50:00,
2013-12-01 20:55:00,39.1,34.4,29.91,North,0,0.0,0.0,83,0.00,,,0.00,VWS V14.00,2013-12-02 02:55:00,
2013-12-01 21:00:00,39.2,34.2,29.91,North,0,0.0,0.0,82,0.00,,,0.00,VWS V14.00,2013-12-02 03:00:00,
2013-12-01 21:05:00,39.2,34.2,29.91,North,0,0.0,0.0,82,0.00,,,0.00,VWS V14.00,2013-12-02 03:05:00,
2013-12-01 21:10:00,39.2,34.5,29.91,North,0,0.0,0.0,83,0.00,,,0.00,VWS V14.00,2013-12-02 03:10:00,
2013-12-01 21:15:00,39.0,33.4,29.91,North,0,0.0,0.0,80,0.00,,,0.00,VWS V14.00,2013-12-02 03:15:00,
2013-12-01 21:20:00,38.7,33.4,29.91,North,0,0.0,0.0,81,0.00,,,0.00,VWS V14.00,2013-12-02 03:20:00,
2013-12-01 21:25:00,38.4,33.1,29.91,North,0,0.0,0.0,81,0.00,,,0.00,VWS V14.00,2013-12-02 03:25:00,
2013-12-01 21:30:00,38.0,32.7,29.92,North,0,0.0,0.0,81,0.00,,,0.00,VWS V14.00,2013-12-02 03:30:00,
2013-12-01 21:35:00,37.8,32.5,29.91,North,0,0.0,0.0,81,0.00,,,0.00,VWS V14.00,2013-12-02 03:35:00,
2013-12-01 21:40:00,37.5,32.5,29.91,North,0,0.0,0.0,82,0.00,,,0.00,VWS V14.00,2013-12-02 03:40:00,
2013-12-01 21:45:00,37.2,32.2,29.91,North,0,0.0,0.0,82,0.00,,,0.00,VWS V14.00,2013-12-02 03:45:00,
2013-12-01 21:50:00,37.0,32.3,29.91,North,0,0.0,0.0,83,0.00,,,0.00,VWS V14.00,2013-12-02 03:50:00,
2013-12-01 21:55:00,36.8,32.7,29.91,North,0,0.0,0.0,85,0.00,,,0.00,VWS V14.00,2013-12-02 03:55:00,
2013-12-01 22:00:00,36.8,32.7,29.90,North,0,0.0,0.0,85,0.00,,,0.00,VWS V14.00,2013-12-02 04:00:00,
2013-12-01 22:05:00,36.7,32.6,29.91,North,0,0.0,0.0,85,0.00,,,0.00,VWS V14.00,2013-12-02 04:05:00,
2013-12-01 22:10:00,36.6,32.8,29.91,North,0,0.0,0.0,86,0.00,,,0.00,VWS V14.00,2013-12-02 04:10:00,
2013-12-01 22:15:00,36.6,32.8,29.90,North,0,0.0,0.0,86,0.00,,,0.00,VWS V14.00,2013-12-02 04:15:00,
2013-12-01 22:20:00,36.5,32.7,29.90,North,0,0.0,0.0,86,0.00,,,0.00,VWS V14.00,2013-12-02 04:20:00,
2013-12-01 22:25:00,36.4,32.6,29.91,North,0,0.0,0.0,86,0.00,,,0.00,VWS V14.00,2013-12-02 04:25:00,
2013-12-01 22:30:00,36.2,32.1,29.90,North,0,0.0,0.0,85,0.00,,,0.00,VWS V14.00,2013-12-02 04:30:00,
2013-12-01 22:35:00,36.0,32.2,29.90,North,0,0.0,0.0,86,0.00,,,0.00,VWS V14.00,2013-12-02 04:35:00,
2013-12-01 22:40:00,35.9,32.4,29.90,North,0,0.0,0.0,87,0.00,,,0.00,VWS V14.00,2013-12-02 04:40:00,
2013-12-01 22:45:00,36.0,32.8,29.90,North,0,0.0,0.0,88,0.00,,,0.00,VWS V14.00,2013-12-02 04:45:00,
2013-12-01 22:50:00,36.0,32.8,29.89,North,0,0.0,0.0,88,0.00,,,0.00,VWS V14.00,2013-12-02 04:50:00,
2013-12-01 22:55:00,35.9,32.7,29.89,North,0,0.0,0.0,88,0.00,,,0.00,VWS V14.00,2013-12-02 04:55:00,
2013-12-01 23:00:00,35.8,32.3,29.90,North,0,0.0,0.0,87,0.00,,,0.00,VWS V14.00,2013-12-02 05:00:00,
2013-12-01 23:05:00,35.3,31.2,29.90,North,0,0.0,0.0,85,0.00,,,0.00,VWS V14.00,2013-12-02 05:05:00,
2013-12-01 23:10:00,34.9,30.9,29.89,North,0,0.0,0.0,85,0.00,,,0.00,VWS V14.00,2013-12-02 05:10:00,
2013-12-01 23:15:00,34.5,30.5,29.89,North,0,0.0,0.0,85,0.00,,,0.00,VWS V14.00,2013-12-02 05:15:00,
2013-12-01 23:20:00,34.2,30.5,29.89,North,0,0.0,0.0,86,0.00,,,0.00,VWS V14.00,2013-12-02 05:20:00,
2013-12-01 23:25:00,34.1,30.6,29.89,North,0,0.0,0.0,87,0.00,,,0.00,VWS V14.00,2013-12-02 05:25:00,
2013-12-01 23:30:00,33.9,30.5,29.89,North,0,0.0,0.0,87,0.00,,,0.00,VWS V14.00,2013-12-02 05:30:00,
2013-12-01 23:35:00,33.8,30.4,29.88,North,0,0.0,0.0,87,0.00,,,0.00,VWS V14.00,2013-12-02 05:35:00,
2013-12-01 23:40:00,33.6,30.1,29.89,North,0,0.0,0.0,87,0.00,,,0.00,VWS V14.00,2013-12-02 05:40:00,
2013-12-01 23:45:00,33.4,30.0,29.89,North,0,0.0,0.0,87,0.00,,,0.00,VWS V14.00,2013-12-02 05:45:00,
2013-12-01 23:50:00,33.1,29.7,29.89,North,0,0.0,0.0,87,0.00,,,0.00,VWS V14.00,2013-12-02 05:50:00,
2013-12-01 23:55:00,32.9,29.5,29.88,North,0,0.0,0.0,87,0.00,,,0.00,VWS V14.00,2013-12-02 05:55:00,